Time;durP1;ratioP1;P1;durP2;ratioP2;P2;SDS_P1;SDS_P2;PMS_P1;PMS_P2;Temp;Humidity;BMP_temperature;BMP_pressure;BME280_temperature;BME280_humidity;BME280_pressure;Samples;Min_cycle;Max_cycle;Signal;HPM_P1;HPM_P2
2022/04/24 00:01:46;;;;;;;85.93;25.93;;;;;;;;;;5067910;28;20485;-76
2022/04/24 00:04:13;;;;;;;61.77;24.77;;;;;;;;;;5068516;28;20490;-74
2022/04/24 00:06:41;;;;;;;63.87;24.77;;;11.30;84.50;;;;;;5064044;28;21260;-73
2022/04/24 00:09:08;;;;;;;59.17;25.40;;;11.40;85.20;;;;;;5066635;28;21243;-74
2022/04/24 00:11:35;;;;;;;76.03;26.13;;;11.30;85.20;;;;;;5067494;28;21239;-76
2022/04/24 00:14:07;;;;;;;38.93;21.50;;;9.70;85.30;;;;;;5056947;28;20857;-75
2022/04/24 00:16:34;;;;;;;68.67;30.27;;;11.30;86.00;;;;;;5063798;28;20519;-76
2022/04/24 00:19:01;;;;;;;59.50;25.07;;;11.30;86.20;;;;;;5064983;28;20491;-75
2022/04/24 00:21:27;;;;;;;52.83;28.53;;;11.30;86.20;;;;;;5066399;28;20492;-73
2022/04/24 00:23:55;;;;;;;32.33;20.60;;;11.30;86.20;;;;;;5065606;28;20898;-74
2022/04/24 00:26:23;;;;;;;35.77;23.47;;;10.40;86.00;;;;;;5059204;28;21047;-76
2022/04/24 00:28:50;;;;;;;31.70;21.47;;;11.30;87.40;;;;;;5059774;28;20485;-77
2022/04/24 00:31:23;;;;;;;30.03;21.53;;;11.30;86.90;;;;;;5062223;28;20482;-73
2022/04/24 00:33:50;;;;;;;30.60;20.53;;;11.40;87.10;;;;;;5065098;28;20482;-73
2022/04/24 00:36:18;;;;;;;30.33;21.33;;;11.40;87.40;;;;;;5061935;28;20861;-74
2022/04/24 00:38:44;;;;;;;31.43;21.30;;;11.40;87.60;;;;;;5066053;28;20477;-75
2022/04/24 00:41:13;;;;;;;30.00;20.20;;;11.40;87.70;;;;;;5065835;28;20481;-74
2022/04/24 00:43:40;;;;;;;26.60;20.03;;;11.50;87.70;;;;;;5068235;28;20481;-74
2022/04/24 00:46:13;;;;;;;30.50;21.20;;;11.50;88.00;;;;;;5062373;28;21262;-75
2022/04/24 00:48:40;;;;;;;29.67;19.53;;;11.60;88.10;;;;;;5057098;28;20493;-75
2022/04/24 00:51:09;;;;;;;32.97;21.13;;;11.60;87.70;;;;;;5065806;28;20493;-76
2022/04/24 00:53:36;;;;;;;29.63;22.23;;;11.60;88.10;;;;;;5066231;28;20512;-78
2022/04/24 00:56:05;;;;;;;27.57;19.93;;;11.70;88.20;;;;;;5062864;28;20494;-73
2022/04/24 00:58:34;;;;;;;34.03;21.87;;;11.80;88.00;;;;;;5062321;28;20485;-72
2022/04/24 01:01:01;;;;;;;25.50;19.03;;;11.80;88.10;;;;;;5066227;28;20485;-73
2022/04/24 01:03:28;;;;;;;27.73;19.97;;;11.80;88.40;;;;;;5063815;28;20571;-75
2022/04/24 01:05:56;;;;;;;29.33;19.20;;;11.80;88.00;;;;;;5067924;28;20769;-77
2022/04/24 01:08:22;;;;;;;44.00;25.70;;;11.70;87.90;;;;;;5069981;28;20482;-77
2022/04/24 01:10:49;;;;;;;35.07;21.40;;;11.50;88.70;;;;;;5069764;28;20483;-74
2022/04/24 01:13:17;;;;;;;33.90;22.60;;;11.30;90.00;;;;;;5067475;28;20470;-74
2022/04/24 01:15:45;;;;;;;34.03;21.90;;;11.30;90.00;;;;;;5069255;28;20478;-73
2022/04/24 01:18:13;;;;;;;34.90;23.57;;;11.30;89.90;;;;;;5070148;28;20469;-76
2022/04/24 01:20:41;;;;;;;29.50;20.83;;;11.40;90.10;;;;;;5069252;28;20479;-74
2022/04/24 01:23:08;;;;;;;28.67;19.50;;;11.40;90.00;;;;;;5071555;28;20996;-75
2022/04/24 01:25:35;;;;;;;40.60;24.40;;;11.50;89.80;;;;;;5072787;28;20481;-73
2022/04/24 01:28:08;;;;;;;39.30;22.23;;;11.60;89.40;;;;;;5067433;28;20474;-74
2022/04/24 01:30:35;;;;;;;48.90;25.80;;;11.70;89.70;;;;;;5075189;28;20498;-73
2022/04/24 01:33:03;;;;;;;28.43;20.50;;;13.00;90.20;;;;;;5067872;28;20897;-77
2022/04/24 01:35:31;;;;;;;37.13;23.37;;;11.70;90.10;;;;;;5067254;28;20678;-73
2022/04/24 01:37:59;;;;;;;34.77;21.33;;;11.60;90.40;;;;;;5067881;28;20506;-75
2022/04/24 01:40:26;;;;;;;65.23;24.60;;;11.70;90.40;;;;;;5069373;28;20779;-78
2022/04/24 01:42:53;;;;;;;24.53;17.57;;;11.70;90.60;;;;;;5068821;28;20496;-77
2022/04/24 01:45:20;;;;;;;62.00;27.33;;;11.60;89.80;;;;;;5064209;28;20998;-72
2022/04/24 01:47:46;;;;;;;28.13;19.80;;;11.60;90.20;;;;;;5066564;28;20483;-75
2022/04/24 01:50:14;;;;;;;28.43;20.20;;;11.60;90.50;;;;;;5065068;28;20473;-75
2022/04/24 01:52:41;;;;;;;32.77;20.97;;;11.50;90.40;;;;;;5064584;28;20519;-74
2022/04/24 01:55:09;;;;;;;26.70;17.87;;;11.40;90.80;;;;;;5053965;28;20515;-73
2022/04/24 01:57:36;;;;;;;33.97;21.50;;;11.50;90.70;;;;;;5061869;28;20470;-75
2022/04/24 02:00:03;;;;;;;30.73;20.30;;;11.50;90.80;;;;;;5064917;28;20665;-75
2022/04/24 02:02:30;;;;;;;43.47;22.77;;;11.50;90.80;;;;;;5063619;28;20478;-77
2022/04/24 02:04:58;;;;;;;31.00;21.20;;;11.40;91.10;;;;;;5068005;28;20990;-71
2022/04/24 02:07:25;;;;;;;40.10;25.23;;;11.30;91.40;;;;;;5066640;28;20482;-71
2022/04/24 02:09:52;;;;;;;24.13;18.17;;;11.20;91.40;;;;;;5067930;28;20734;-76
2022/04/24 02:12:20;;;;;;;29.17;20.97;;;11.30;91.50;;;;;;5068797;28;20706;-77
2022/04/24 02:14:47;;;;;;;27.50;20.07;;;11.40;91.30;;;;;;5069131;28;20482;-73
2022/04/24 02:17:14;;;;;;;29.70;19.80;;;11.50;91.30;;;;;;5069570;28;20785;-74
2022/04/24 02:19:40;;;;;;;26.20;20.13;;;11.50;91.10;;;;;;5061558;28;20480;-75
2022/04/24 02:22:07;;;;;;;29.63;20.53;;;11.70;91.10;;;;;;5067934;28;20477;-74
2022/04/24 02:24:34;;;;;;;40.37;26.67;;;11.80;91.00;;;;;;5062396;28;20945;-75
2022/04/24 02:27:01;;;;;;;31.33;21.80;;;11.80;90.80;;;;;;5064648;28;20855;-72
2022/04/24 02:29:29;;;;;;;43.70;26.43;;;11.90;91.10;;;;;;5067231;28;20477;-77
2022/04/24 02:31:57;;;;;;;46.97;22.37;;;;;;;;;;5065391;28;20474;-75
2022/04/24 02:34:25;;;;;;;51.57;27.60;;;;;;;;;;5065592;28;20564;-78
2022/04/24 02:36:52;;;;;;;30.40;19.07;;;11.60;91.60;;;;;;5070043;28;20584;-74
2022/04/24 02:39:19;;;;;;;34.17;21.90;;;11.60;91.80;;;;;;5068167;28;20719;-72
2022/04/24 02:41:46;;;;;;;36.83;22.60;;;11.60;91.50;;;;;;5069789;28;21317;-79
2022/04/24 02:44:12;;;;;;;32.93;21.73;;;11.60;92.00;;;;;;5069699;28;20479;-74
2022/04/24 02:46:40;;;;;;;133.90;26.30;;;11.60;91.90;;;;;;5066720;28;21440;-76
2022/04/24 02:49:07;;;;;;;83.13;26.20;;;;;;;;;;5069571;28;20484;-74
2022/04/24 02:51:35;;;;;;;63.93;28.73;;;11.50;92.20;;;;;;5067252;28;20477;-75
2022/04/24 02:54:02;;;;;;;46.33;22.53;;;11.40;92.70;;;;;;5062200;28;20533;-77
2022/04/24 02:56:29;;;;;;;117.53;29.63;;;;;;;;;;5065909;28;20489;-73
2022/04/24 02:58:56;;;;;;;33.23;22.60;;;11.40;92.40;;;;;;5065452;28;20478;-77
2022/04/24 03:01:23;;;;;;;35.17;25.43;;;11.50;92.70;;;;;;5067561;28;20495;-75
2022/04/24 03:03:51;;;;;;;29.87;21.70;;;11.50;92.50;;;;;;5066302;28;20860;-74
2022/04/24 03:06:18;;;;;;;30.13;21.10;;;11.50;92.40;;;;;;5060982;28;20572;-75
2022/04/24 03:08:46;;;;;;;33.47;21.47;;;11.60;92.50;;;;;;5069549;28;20484;-73
2022/04/24 03:11:13;;;;;;;36.17;22.23;;;11.50;92.80;;;;;;5065188;28;20884;-76
2022/04/24 03:13:40;;;;;;;28.57;21.17;;;11.70;92.50;;;;;;5064672;28;21401;-74
2022/04/24 03:16:08;;;;;;;46.37;24.83;;;11.70;92.50;;;;;;5067824;28;20480;-75
2022/04/24 03:18:34;;;;;;;39.27;25.70;;;11.70;92.60;;;;;;5064983;28;20552;-73
2022/04/24 03:21:03;;;;;;;32.50;21.77;;;11.60;92.70;;;;;;5066833;28;20482;-75
2022/04/24 03:23:30;;;;;;;48.53;28.07;;;11.60;92.70;;;;;;5068409;28;22102;-77
2022/04/24 03:25:57;;;;;;;35.93;24.90;;;11.60;92.70;;;;;;5065317;28;20816;-76
2022/04/24 03:28:24;;;;;;;72.20;28.80;;;;;;;;;;5068795;28;20478;-75
2022/04/24 03:30:51;;;;;;;31.40;22.80;;;11.60;92.40;;;;;;5061197;28;20475;-75
2022/04/24 03:33:17;;;;;;;32.40;22.47;;;11.60;92.70;;;;;;5065884;28;20484;-73
2022/04/24 03:35:44;;;;;;;33.70;21.53;;;10.40;92.00;;;;;;5068834;28;20467;-75
2022/04/24 03:38:12;;;;;;;26.27;19.90;;;11.70;92.70;;;;;;5074077;28;20840;-76
2022/04/24 03:40:40;;;;;;;32.13;23.33;;;11.80;92.60;;;;;;5063812;28;20476;-74
2022/04/24 03:43:07;;;;;;;28.67;20.30;;;11.80;92.80;;;;;;5067215;28;20745;-76
2022/04/24 03:45:34;;;;;;;30.43;22.60;;;11.90;92.90;;;;;;5068152;28;20501;-76
2022/04/24 03:48:01;;;;;;;26.97;19.87;;;11.90;93.00;;;;;;5070786;28;20477;-75
2022/04/24 03:50:27;;;;;;;37.87;24.83;;;11.90;93.00;;;;;;5065103;28;20488;-74
2022/04/24 03:52:55;;;;;;;21.40;16.37;;;11.90;93.10;;;;;;5071792;28;20471;-77
2022/04/24 03:55:24;;;;;;;30.20;20.10;;;12.10;92.60;;;;;;5066328;28;20490;-76
2022/04/24 03:57:50;;;;;;;18.50;12.50;;;12.10;92.60;;;;;;5074136;28;20471;-79
2022/04/24 04:00:18;;;;;;;20.10;13.00;;;12.10;93.20;;;;;;5075957;28;20487;-80
2022/04/24 04:02:46;;;;;;;13.77;9.07;;;12.00;93.60;;;;;;5061187;28;20475;-78
2022/04/24 04:05:14;;;;;;;7.50;5.10;;;11.90;94.00;;;;;;5069125;28;20510;-76
2022/04/24 04:07:40;;;;;;;10.73;7.50;;;11.90;94.20;;;;;;5060099;28;20528;-78
2022/04/24 04:10:08;;;;;;;7.77;5.77;;;11.80;94.60;;;;;;5066123;28;20484;-74
2022/04/24 04:12:36;;;;;;;51.17;10.63;;;;;;;;;;5066464;28;20479;-73
2022/04/24 04:15:03;;;;;;;13.87;6.43;;;;;;;;;;5065062;28;20737;-74
2022/04/24 04:17:30;;;;;;;17.60;10.90;;;11.70;94.80;;;;;;5073036;28;20489;-75
2022/04/24 04:19:57;;;;;;;10.40;6.27;;;11.60;95.00;;;;;;5063647;28;20517;-73
2022/04/24 04:22:24;;;;;;;26.17;10.20;;;11.60;95.30;;;;;;5072496;28;20488;-79
2022/04/24 04:24:51;;;;;;;6.03;4.17;;;11.60;95.30;;;;;;5072935;28;21137;-77
2022/04/24 04:27:18;;;;;;;8.00;5.43;;;11.60;95.50;;;;;;5073077;28;20899;-78
2022/04/24 04:29:46;;;;;;;4.47;3.73;;;11.60;95.70;;;;;;5073690;28;20488;-77
2022/04/24 04:32:14;;;;;;;5.43;3.90;;;11.60;95.50;;;;;;5074925;28;20842;-79
2022/04/24 04:34:41;;;;;;;8.00;6.00;;;10.80;95.10;;;;;;5068188;28;20485;-81
2022/04/24 04:37:08;;;;;;;5.90;4.63;;;11.70;95.70;;;;;;5076291;28;20777;-74
2022/04/24 04:39:34;;;;;;;12.47;6.50;;;11.70;95.50;;;;;;5072260;28;20479;-76
2022/04/24 04:42:01;;;;;;;5.73;3.60;;;11.80;95.60;;;;;;5077720;28;20478;-76
2022/04/24 04:44:28;;;;;;;39.77;12.10;;;11.80;95.50;;;;;;5068372;28;20557;-76
2022/04/24 04:46:56;;;;;;;4.83;4.33;;;11.80;95.60;;;;;;5067120;28;20491;-82
2022/04/24 04:49:23;;;;;;;32.47;7.33;;;11.80;95.60;;;;;;5076137;28;20483;-75
2022/04/24 04:51:50;;;;;;;4.20;3.27;;;11.80;95.90;;;;;;5071054;28;20986;-74
2022/04/24 04:54:16;;;;;;;14.90;6.30;;;11.80;95.90;;;;;;5074640;28;20476;-73
2022/04/24 04:56:43;;;;;;;8.03;6.07;;;11.80;95.90;;;;;;5072617;28;20469;-73
2022/04/24 04:59:10;;;;;;;11.20;4.60;;;11.70;95.80;;;;;;5074749;28;20970;-78
2022/04/24 05:01:37;;;;;;;41.30;7.30;;;;;;;;;;5066990;28;20494;-74
2022/04/24 05:04:07;;;;;;;10.17;4.27;;;11.70;95.90;;;;;;5070392;28;20482;-77
2022/04/24 05:06:35;;;;;;;30.23;9.90;;;11.70;96.30;;;;;;5064211;28;20489;-72
2022/04/24 05:09:02;;;;;;;8.43;4.23;;;11.60;96.30;;;;;;5074489;28;20576;-74
2022/04/24 05:11:28;;;;;;;10.80;7.50;;;11.50;96.30;;;;;;5072685;28;20487;-73
2022/04/24 05:13:56;;;;;;;17.57;6.40;;;;;;;;;;5064893;28;20480;-73
2022/04/24 05:16:23;;;;;;;61.73;12.73;;;11.50;96.40;;;;;;5071340;28;20481;-77
2022/04/24 05:18:50;;;;;;;14.40;4.30;;;11.50;96.50;;;;;;5060618;28;20844;-74
2022/04/24 05:21:19;;;;;;;42.50;7.07;;;;;;;;;;5063943;28;20501;-74
2022/04/24 05:23:48;;;;;;;38.73;7.13;;;;;;;;;;5066094;28;20558;-76
2022/04/24 05:26:16;;;;;;;17.60;6.23;;;11.60;96.30;;;;;;5061678;28;20866;-75
2022/04/24 05:28:43;;;;;;;23.33;6.07;;;;;;;;;;5068286;28;20484;-74
2022/04/24 05:31:10;;;;;;;50.97;7.53;;;;;;;;;;5069729;28;20488;-74
2022/04/24 05:33:37;;;;;;;55.40;8.17;;;;;;;;;;5068473;28;20477;-79
2022/04/24 05:36:05;;;;;;;37.27;5.87;;;;;;;;;;5065533;28;20478;-77
2022/04/24 05:38:33;;;;;;;25.57;8.03;;;11.50;97.10;;;;;;5072951;28;20478;-74
2022/04/24 05:41:00;;;;;;;17.50;5.93;;;;;;;;;;5059369;28;20636;-71
2022/04/24 05:43:26;;;;;;;34.93;10.93;;;11.40;97.60;;;;;;5064962;28;20821;-72
2022/04/24 05:45:53;;;;;;;13.37;5.03;;;11.40;97.60;;;;;;5078894;28;20572;-75
2022/04/24 05:48:20;;;;;;;24.73;6.50;;;;;;;;;;5080143;28;20495;-74
2022/04/24 05:50:47;;;;;;;31.03;7.50;;;11.20;98.20;;;;;;5068993;28;20656;-71
2022/04/24 05:53:14;;;;;;;5.00;3.17;;;9.50;98.20;;;;;;5069053;28;20845;-72
2022/04/24 05:55:42;;;;;;;20.53;6.07;;;11.20;98.50;;;;;;5064116;28;20831;-73
2022/04/24 05:58:09;;;;;;;7.30;4.47;;;11.20;98.40;;;;;;5066499;28;20517;-70
2022/04/24 06:00:36;;;;;;;8.80;5.23;;;11.10;98.50;;;;;;5066888;28;20928;-73
2022/04/24 06:03:03;;;;;;;8.23;4.43;;;11.10;98.70;;;;;;5063311;28;20498;-75
2022/04/24 06:05:30;;;;;;;39.07;11.20;;;11.10;98.60;;;;;;5062499;28;21013;-71
2022/04/24 06:07:58;;;;;;;10.27;5.33;;;11.10;98.70;;;;;;5071077;28;20478;-70
2022/04/24 06:10:24;;;;;;;29.03;11.37;;;11.20;98.80;;;;;;5066348;28;20516;-74
2022/04/24 06:12:54;;;;;;;15.23;6.20;;;11.10;98.60;;;;;;5061929;28;20484;-70
2022/04/24 06:15:24;;;;;;;19.97;7.27;;;11.10;98.60;;;;;;5071740;28;20497;-72
2022/04/24 06:17:53;;;;;;;6.90;4.40;;;11.00;98.80;;;;;;5070476;28;20482;-75
2022/04/24 06:20:22;;;;;;;14.93;6.57;;;11.10;98.90;;;;;;5070500;28;20848;-76
2022/04/24 06:22:51;;;;;;;11.70;3.90;;;11.10;98.90;;;;;;5068924;28;20483;-75
2022/04/24 06:25:18;;;;;;;10.67;5.83;;;11.00;99.00;;;;;;5067081;28;20480;-74
2022/04/24 06:27:46;;;;;;;28.27;6.30;;;11.10;98.80;;;;;;5065133;28;21221;-71
2022/04/24 06:30:16;;;;;;;5.93;3.60;;;11.10;99.10;;;;;;5076853;28;20496;-71
2022/04/24 06:32:43;;;;;;;3.83;2.33;;;11.00;98.90;;;;;;5070892;28;20487;-71
2022/04/24 06:35:12;;;;;;;7.37;3.10;;;11.10;99.10;;;;;;5071393;28;20489;-73
2022/04/24 06:37:41;;;;;;;5.70;3.27;;;11.00;99.00;;;;;;5063726;28;20489;-69
2022/04/24 06:40:09;;;;;;;3.80;3.33;;;11.00;99.30;;;;;;5069019;28;20884;-73
2022/04/24 06:42:47;;;;;;;9.93;4.70;;;11.00;99.40;;;;;;5070337;28;20482;-75
2022/04/24 06:45:15;;;;;;;6.53;3.00;;;11.00;99.40;;;;;;5070225;28;20886;-76
2022/04/24 06:47:42;;;;;;;3.53;2.50;;;11.00;99.20;;;;;;5079549;28;20478;-73
2022/04/24 06:50:10;;;;;;;9.87;4.03;;;11.00;99.30;;;;;;5068155;28;21040;-72
2022/04/24 06:52:36;;;;;;;7.80;4.43;;;11.00;99.50;;;;;;5072888;28;20491;-73
2022/04/24 06:55:04;;;;;;;6.80;3.60;;;;;;;;;;5068585;28;21409;-74
2022/04/24 06:57:32;;;;;;;20.80;6.80;;;10.90;99.30;;;;;;5072247;28;20504;-79
2022/04/24 06:59:59;;;;;;;10.20;4.60;;;11.00;99.50;;;;;;5067581;28;20502;-72
2022/04/24 07:02:27;;;;;;;6.60;3.73;;;11.00;99.30;;;;;;5064182;28;20512;-73
2022/04/24 07:04:54;;;;;;;3.13;2.83;;;11.00;99.40;;;;;;5070288;28;20474;-74
2022/04/24 07:07:21;;;;;;;12.60;5.47;;;11.10;99.20;;;;;;5073619;28;20504;-79
2022/04/24 07:09:49;;;;;;;5.30;2.83;;;11.10;99.30;;;;;;5072521;28;20483;-73
2022/04/24 07:12:16;;;;;;;4.77;2.67;;;11.10;99.20;;;;;;5069805;28;20560;-79
2022/04/24 07:14:43;;;;;;;2.80;2.27;;;11.10;99.20;;;;;;5063227;28;20485;-73
2022/04/24 07:17:09;;;;;;;7.33;3.43;;;8.90;98.80;;;;;;5074223;28;20480;-77
2022/04/24 07:19:37;;;;;;;9.37;4.30;;;11.00;99.40;;;;;;5067207;28;21002;-72
2022/04/24 07:22:05;;;;;;;1.80;1.40;;;11.10;99.50;;;;;;5065093;28;20479;-76
2022/04/24 07:24:31;;;;;;;24.83;8.20;;;11.10;99.20;;;;;;5072622;28;20478;-70
2022/04/24 07:26:58;;;;;;;4.83;2.47;;;11.10;99.70;;;;;;5059242;28;20516;-77
2022/04/24 07:29:24;;;;;;;5.67;4.63;;;11.10;99.60;;;;;;5065652;28;20486;-71
2022/04/24 07:31:51;;;;;;;1.97;1.57;;;11.10;99.50;;;;;;5066422;28;20498;-74
2022/04/24 07:34:19;;;;;;;3.00;2.40;;;11.20;99.40;;;;;;5075826;28;20601;-74
2022/04/24 07:36:47;;;;;;;2.20;2.00;;;11.30;99.50;;;;;;5060488;28;21310;-72
2022/04/24 07:39:15;;;;;;;3.37;2.50;;;11.20;99.40;;;;;;5069428;28;21173;-73
2022/04/24 07:41:42;;;;;;;2.33;2.07;;;11.30;99.10;;;;;;5071828;28;20482;-75
2022/04/24 07:44:08;;;;;;;1.87;1.67;;;11.40;99.40;;;;;;5064611;28;20489;-73
2022/04/24 07:46:35;;;;;;;6.57;4.67;;;11.40;99.50;;;;;;5067649;28;20467;-71
2022/04/24 07:49:02;;;;;;;4.50;3.57;;;11.50;99.10;;;;;;5073889;28;20850;-75
2022/04/24 07:51:30;;;;;;;6.13;3.80;;;11.50;99.30;;;;;;5065833;28;20503;-73
2022/04/24 07:53:58;;;;;;;2.60;2.40;;;11.50;99.50;;;;;;5064257;28;20484;-72
2022/04/24 07:56:25;;;;;;;8.27;4.77;;;11.50;99.50;;;;;;5068383;28;20986;-73
2022/04/24 07:58:51;;;;;;;3.40;3.10;;;11.60;99.20;;;;;;5079380;28;20481;-75
2022/04/24 08:01:19;;;;;;;2.33;2.13;;;11.60;99.30;;;;;;5069686;28;20495;-73
2022/04/24 08:03:46;;;;;;;3.37;3.10;;;11.70;99.70;;;;;;5058518;28;20600;-72
2022/04/24 08:06:13;;;;;;;3.73;3.43;;;11.60;99.40;;;;;;5060379;28;20487;-76
2022/04/24 08:08:40;;;;;;;4.50;4.10;;;11.60;99.10;;;;;;5072913;28;20484;-75
2022/04/24 08:11:08;;;;;;;4.00;3.70;;;11.70;99.00;;;;;;5073333;28;20474;-72
2022/04/24 08:13:34;;;;;;;11.80;6.90;;;11.80;99.30;;;;;;5072365;28;20474;-70
2022/04/24 08:16:02;;;;;;;6.57;5.13;;;11.80;99.40;;;;;;5068171;28;20469;-72
2022/04/24 08:18:29;;;;;;;13.23;7.87;;;11.80;98.90;;;;;;5074196;28;21192;-76
2022/04/24 08:20:56;;;;;;;6.17;4.73;;;11.80;99.00;;;;;;5076676;28;20484;-76
2022/04/24 08:23:25;;;;;;;7.67;5.27;;;11.70;99.20;;;;;;5073328;28;20897;-71
2022/04/24 08:25:52;;;;;;;12.00;6.60;;;11.70;99.50;;;;;;5072594;28;20475;-76
2022/04/24 08:28:21;;;;;;;9.57;5.13;;;11.80;99.40;;;;;;5071247;28;20486;-73
2022/04/24 08:30:48;;;;;;;6.67;5.80;;;11.80;99.10;;;;;;5075586;28;20567;-71
2022/04/24 08:33:17;;;;;;;6.77;5.37;;;11.90;99.10;;;;;;5076809;28;20831;-76
2022/04/24 08:35:45;;;;;;;6.60;5.40;;;11.80;98.60;;;;;;5072807;28;20568;-73
2022/04/24 08:38:13;;;;;;;6.80;5.20;;;11.70;98.40;;;;;;5070614;28;20482;-75
2022/04/24 08:40:40;;;;;;;34.20;9.53;;;;;;;;;;5064903;28;20494;-76
2022/04/24 08:43:06;;;;;;;11.43;5.00;;;11.70;98.40;;;;;;5068783;28;20547;-71
2022/04/24 08:45:34;;;;;;;29.17;13.00;;;11.70;98.70;;;;;;5072541;28;20532;-73
2022/04/24 08:48:04;;;;;;;7.70;6.70;;;11.70;98.70;;;;;;5073573;28;20476;-76
2022/04/24 08:50:33;;;;;;;18.33;9.43;;;11.70;98.90;;;;;;5073593;28;20564;-72
2022/04/24 08:53:00;;;;;;;8.13;6.00;;;11.70;99.00;;;;;;5073209;28;20477;-74
2022/04/24 08:55:30;;;;;;;11.43;7.40;;;11.70;99.00;;;;;;5071573;28;20658;-74
2022/04/24 08:57:58;;;;;;;6.83;5.10;;;11.80;98.90;;;;;;5076064;28;20485;-74
2022/04/24 09:00:25;;;;;;;7.33;5.20;;;11.90;98.70;;;;;;5078410;28;20483;-77
2022/04/24 09:02:53;;;;;;;3.53;3.23;;;10.80;98.00;;;;;;5070168;28;20484;-75
2022/04/24 09:05:21;;;;;;;13.30;6.47;;;11.80;98.40;;;;;;5063829;28;20904;-72
2022/04/24 09:07:52;;;;;;;3.40;3.10;;;11.80;98.60;;;;;;5068984;28;21366;-74
2022/04/24 09:10:19;;;;;;;3.00;2.80;;;11.70;98.70;;;;;;5068569;28;20885;-76
2022/04/24 09:12:53;;;;;;;2.33;2.13;;;11.70;99.00;;;;;;5073809;28;20491;-72
2022/04/24 09:15:19;;;;;;;3.03;1.80;;;11.70;99.00;;;;;;5067814;28;20484;-72
2022/04/24 09:17:47;;;;;;;3.20;2.10;;;11.60;99.00;;;;;;5070848;28;20559;-73
2022/04/24 09:20:20;;;;;;;3.20;2.00;;;11.60;99.40;;;;;;5074031;28;20499;-73
2022/04/24 09:22:47;;;;;;;2.23;1.93;;;11.60;99.40;;;;;;5064542;28;20505;-73
2022/04/24 09:25:13;;;;;;;3.47;2.57;;;11.60;99.40;;;;;;5072130;28;20496;-73
2022/04/24 09:27:41;;;;;;;17.13;6.47;;;11.70;99.80;;;;;;5069434;28;20984;-72
2022/04/24 09:30:12;;;;;;;4.60;3.23;;;11.70;99.90;;;;;;5070064;28;21163;-73
2022/04/24 09:32:47;;;;;;;7.07;4.87;;;11.70;99.90;;;;;;5054834;28;20479;-71
2022/04/24 09:35:25;;;;;;;4.10;3.80;;;11.60;99.90;;;;;;5063890;28;20506;-71
2022/04/24 09:37:52;;;;;;;3.83;3.43;;;11.60;99.90;;;;;;5071507;28;20494;-74
2022/04/24 09:40:20;;;;;;;3.77;2.60;;;11.60;99.90;;;;;;5065068;28;20506;-73
2022/04/24 09:42:54;;;;;;;2.60;2.40;;;11.60;99.90;;;;;;5071530;28;20620;-71
2022/04/24 09:45:25;;;;;;;3.50;3.20;;;11.70;99.90;;;;;;5066035;28;21100;-73
2022/04/24 09:47:59;;;;;;;2.43;2.23;;;13.90;99.90;;;;;;5080367;28;20600;-73
2022/04/24 09:50:29;;;;;;;7.90;5.10;;;11.70;99.90;;;;;;5065341;28;20482;-72
2022/04/24 09:52:58;;;;;;;4.87;3.57;;;11.80;99.90;;;;;;5071930;28;20491;-77
2022/04/24 09:55:26;;;;;;;8.40;5.37;;;11.80;99.90;;;;;;5071843;28;20912;-71
2022/04/24 09:57:54;;;;;;;56.37;7.20;;;;;;;;;;5075533;28;20491;-73
2022/04/24 10:00:22;;;;;;;5.13;4.23;;;11.90;99.30;;;;;;5070963;28;20568;-72
2022/04/24 10:02:51;;;;;;;6.17;3.97;;;12.10;99.50;;;;;;5061622;28;127034;-73
2022/04/24 10:05:18;;;;;;;7.93;4.77;;;12.20;99.80;;;;;;5064889;28;20477;-74
2022/04/24 10:07:47;;;;;;;5.30;4.40;;;12.30;99.70;;;;;;5079520;28;20562;-70
2022/04/24 10:10:15;;;;;;;5.20;3.70;;;12.40;99.30;;;;;;5073839;28;21146;-71
2022/04/24 10:12:46;;;;;;;4.47;4.07;;;12.40;99.50;;;;;;5069657;28;20935;-76
2022/04/24 10:15:16;;;;;;;4.70;3.83;;;12.50;98.40;;;;;;5071866;28;20474;-75
2022/04/24 10:18:30;;;;;;;4.17;3.50;;;12.50;98.40;;;;;;5067530;28;20494;-72
2022/04/24 10:21:17;;;;;;;7.37;4.80;;;12.50;99.30;;;;;;5006906;28;20481;-72
2022/04/24 10:23:45;;;;;;;6.30;4.83;;;12.50;99.00;;;;;;5053650;28;20468;-72
2022/04/24 10:26:22;;;;;;;5.97;4.87;;;12.60;98.70;;;;;;5067744;28;20482;-72
2022/04/24 10:28:50;;;;;;;4.40;4.00;;;12.50;99.10;;;;;;5072418;28;20484;-73
2022/04/24 10:31:17;;;;;;;4.17;3.80;;;12.50;99.10;;;;;;5069526;28;20482;-74
2022/04/24 10:33:54;;;;;;;8.60;5.63;;;12.50;99.10;;;;;;5068668;28;20483;-74
2022/04/24 10:36:23;;;;;;;4.80;4.30;;;12.50;98.90;;;;;;5072749;28;21155;-72
2022/04/24 10:38:52;;;;;;;31.80;8.47;;;;;;;;;;5063509;28;20490;-75
2022/04/24 10:41:20;;;;;;;38.90;6.57;;;12.60;99.20;;;;;;5062345;28;20488;-72
2022/04/24 10:43:49;;;;;;;14.57;7.63;;;12.80;98.80;;;;;;5068543;28;20540;-72
2022/04/24 10:46:18;;;;;;;15.83;6.70;;;12.80;99.00;;;;;;5064860;28;21090;-74
2022/04/24 10:48:46;;;;;;;12.80;6.57;;;12.80;98.20;;;;;;5066987;28;21239;-69
2022/04/24 10:51:13;;;;;;;25.70;6.83;;;;;;;;;;5073983;28;20492;-72
2022/04/24 10:53:52;;;;;;;19.63;9.03;;;12.90;98.30;;;;;;5070008;28;20828;-76
2022/04/24 10:56:19;;;;;;;10.60;6.50;;;12.90;98.50;;;;;;5071966;28;20470;-71
2022/04/24 10:58:48;;;;;;;13.20;6.70;;;15.10;99.20;;;;;;5066845;28;20988;-74
2022/04/24 11:01:16;;;;;;;15.43;6.60;;;13.10;99.00;;;;;;5067419;28;20475;-73
2022/04/24 11:03:44;;;;;;;7.00;5.67;;;13.20;98.50;;;;;;5075091;28;20480;-72
2022/04/24 11:06:24;;;;;;;8.07;5.50;;;13.30;98.60;;;;;;5077718;28;21205;-73
2022/04/24 11:08:52;;;;;;;7.30;5.50;;;13.40;97.60;;;;;;5071554;28;20503;-74
2022/04/24 11:11:19;;;;;;;8.00;6.33;;;13.40;98.20;;;;;;5063606;28;20486;-73
2022/04/24 11:13:46;;;;;;;6.17;5.57;;;13.30;97.60;;;;;;5066243;28;20488;-73
2022/04/24 11:16:13;;;;;;;8.80;6.87;;;13.30;97.80;;;;;;5063065;28;20577;-74
2022/04/24 11:18:51;;;;;;;18.73;9.53;;;13.30;98.30;;;;;;5058446;28;20473;-73
2022/04/24 11:21:19;;;;;;;8.67;6.23;;;13.20;98.20;;;;;;5065090;28;20466;-71
2022/04/24 11:23:46;;;;;;;12.03;7.47;;;13.30;98.50;;;;;;5066212;28;20562;-73
2022/04/24 11:26:15;;;;;;;9.77;6.87;;;13.30;98.20;;;;;;5064300;28;20541;-75
2022/04/24 11:28:43;;;;;;;44.50;10.30;;;13.20;97.50;;;;;;5066687;28;20524;-73
2022/04/24 11:31:13;;;;;;;22.80;9.93;;;13.20;97.70;;;;;;5068416;28;20470;-71
2022/04/24 11:33:51;;;;;;;18.50;11.00;;;13.20;97.80;;;;;;5069290;28;20810;-71
2022/04/24 11:36:18;;;;;;;21.50;8.80;;;;;;;;;;5069353;28;20476;-74
2022/04/24 11:38:46;;;;;;;10.93;6.93;;;13.20;97.90;;;;;;5075508;28;20487;-74
2022/04/24 11:41:15;;;;;;;8.57;6.27;;;13.20;98.00;;;;;;5062270;28;20555;-72
2022/04/24 11:43:43;;;;;;;12.73;6.97;;;13.20;99.00;;;;;;5056584;28;20599;-76
2022/04/24 11:51:39;;;;;;;71.27;13.63;;;13.20;98.40;;;;;;5074127;28;20533;-73
2022/04/24 11:54:07;;;;;;;32.73;8.40;;;;;;;;;;5077840;28;20471;-73
2022/04/24 11:56:37;;;;;;;87.07;14.13;;;;;;;;;;5058300;28;20912;-72
2022/04/24 11:59:15;;;;;;;17.27;9.30;;;13.10;98.00;;;;;;5074184;28;20499;-75
2022/04/24 12:01:43;;;;;;;30.33;9.60;;;;;;;;;;5068558;28;20488;-73
2022/04/24 12:04:17;;;;;;;15.50;8.90;;;13.00;99.30;;;;;;5071656;28;20476;-73
2022/04/24 12:06:44;;;;;;;16.77;9.53;;;13.00;99.40;;;;;;5075269;28;20587;-75
2022/04/24 12:09:11;;;;;;;13.20;8.87;;;13.00;99.40;;;;;;5066972;28;20556;-73
2022/04/24 12:11:39;;;;;;;30.13;13.90;;;13.00;99.90;;;;;;5067838;28;20853;-75
2022/04/24 12:14:08;;;;;;;12.83;9.00;;;13.10;99.40;;;;;;5076931;28;20475;-73
2022/04/24 12:16:35;;;;;;;20.23;12.83;;;13.10;99.30;;;;;;5071788;28;20984;-74
2022/04/24 12:19:03;;;;;;;15.60;10.77;;;13.20;99.80;;;;;;5074874;28;21098;-75
2022/04/24 12:21:33;;;;;;;23.20;14.03;;;13.40;99.30;;;;;;5065476;28;20486;-73
2022/04/24 12:24:00;;;;;;;13.33;9.63;;;13.20;99.60;;;;;;5074129;28;20477;-72
2022/04/24 12:26:27;;;;;;;19.83;13.97;;;13.30;99.60;;;;;;5073284;28;20562;-78
2022/04/24 12:28:55;;;;;;;11.93;9.43;;;15.50;99.60;;;;;;5067378;28;21070;-74
2022/04/24 12:31:24;;;;;;;18.37;11.17;;;13.30;99.10;;;;;;5085712;28;20477;-74
2022/04/24 12:33:53;;;;;;;13.23;8.43;;;13.40;99.60;;;;;;5066794;28;20534;-73
2022/04/24 12:36:22;;;;;;;10.87;9.57;;;13.40;99.20;;;;;;5068957;28;20816;-74
2022/04/24 12:38:56;;;;;;;13.97;10.30;;;13.40;98.70;;;;;;5067649;28;20483;-75
2022/04/24 12:41:25;;;;;;;23.07;12.60;;;13.50;99.20;;;;;;5060034;28;20861;-78
2022/04/24 12:43:52;;;;;;;12.70;10.70;;;13.50;99.10;;;;;;5073419;28;20563;-74
2022/04/24 12:46:20;;;;;;;20.27;12.80;;;13.40;98.60;;;;;;5063722;28;20855;-76
2022/04/24 12:48:48;;;;;;;29.83;14.90;;;13.40;98.00;;;;;;5047616;28;20471;-76
2022/04/24 12:51:15;;;;;;;25.03;16.10;;;13.50;98.60;;;;;;5061434;28;21116;-75
2022/04/24 12:53:42;;;;;;;25.30;15.37;;;13.60;98.90;;;;;;5060785;28;20490;-79
2022/04/24 12:56:10;;;;;;;23.27;14.70;;;13.70;97.90;;;;;;5061616;28;20480;-79